Terminal Aerodrome Forecast
Issued by NWS

Home | Current Version | Previous Version | Text Only | Print | Product List | Glossary On
Versions: 1 2 3 4 5 6 7 8 9 10 11 12 13 14 15 16 17 18 19 20 21 22 23 24 25 26 27 28 29 30 31 32 33 34 35 36 37 38 39 40 41 42 43 44 45 46 47 48 49 50
000
FTUS43 KDMX 301839 AAB
TAFMCW
TAF AMD
KMCW 301839Z 3019/3118 VRB03KT P6SM VCSH BKN035 BKN045
     FM302300 11004KT P6SM BKN070
     FM310900 12003KT 3SM BR SCT020
     FM311100 14003KT 1SM BR BKN009 BKN015
     FM311400 14005KT 6SM BR SCT009 SCT025
     FM311600 14008KT P6SM BKN045=

USA.gov is the U.S. government's official web portal to all federal, state and local government web resources and services.